sensor_id;sensor_type;location;lat;lon;timestamp;temperature;humidity
69598;SHT31;70000;51.176;-115.568;2023-06-22T00:01:36;14.50;46.68
69598;SHT31;70000;51.176;-115.568;2023-06-22T00:04:05;14.84;46.88
69598;SHT31;70000;51.176;-115.568;2023-06-22T00:06:33;15.19;45.79
69598;SHT31;70000;51.176;-115.568;2023-06-22T00:09:04;15.53;45.09
69598;SHT31;70000;51.176;-115.568;2023-06-22T00:11:34;15.97;44.62
69598;SHT31;70000;51.176;-115.568;2023-06-22T00:14:03;17.08;43.72
69598;SHT31;70000;51.176;-115.568;2023-06-22T00:16:32;18.83;41.37
69598;SHT31;70000;51.176;-115.568;2023-06-22T00:19:01;20.55;39.10
69598;SHT31;70000;51.176;-115.568;2023-06-22T00:21:30;22.13;35.94
69598;SHT31;70000;51.176;-115.568;2023-06-22T00:24:01;22.77;34.12
69598;SHT31;70000;51.176;-115.568;2023-06-22T00:26:34;22.24;33.96
69598;SHT31;70000;51.176;-115.568;2023-06-22T00:29:02;21.62;34.04
69598;SHT31;70000;51.176;-115.568;2023-06-22T00:31:31;20.94;33.97
69598;SHT31;70000;51.176;-115.568;2023-06-22T00:33:59;20.40;34.55
69598;SHT31;70000;51.176;-115.568;2023-06-22T00:36:28;19.98;34.85
69598;SHT31;70000;51.176;-115.568;2023-06-22T00:38:56;19.57;35.17
69598;SHT31;70000;51.176;-115.568;2023-06-22T00:41:24;19.20;35.50
69598;SHT31;70000;51.176;-115.568;2023-06-22T00:43:55;18.83;35.77
69598;SHT31;70000;51.176;-115.568;2023-06-22T00:46:23;18.48;36.27
69598;SHT31;70000;51.176;-115.568;2023-06-22T00:48:59;18.32;36.66
69598;SHT31;70000;51.176;-115.568;2023-06-22T00:51:28;18.11;37.06
69598;SHT31;70000;51.176;-115.568;2023-06-22T00:53:57;17.99;37.46
69598;SHT31;70000;51.176;-115.568;2023-06-22T00:56:25;17.92;37.27
69598;SHT31;70000;51.176;-115.568;2023-06-22T00:58:56;17.75;37.58
69598;SHT31;70000;51.176;-115.568;2023-06-22T01:01:30;17.60;37.80
69598;SHT31;70000;51.176;-115.568;2023-06-22T01:03:59;17.49;38.38
69598;SHT31;70000;51.176;-115.568;2023-06-22T01:06:33;17.40;38.47
69598;SHT31;70000;51.176;-115.568;2023-06-22T01:09:15;17.24;39.04
69598;SHT31;70000;51.176;-115.568;2023-06-22T01:11:54;17.07;39.57
69598;SHT31;70000;51.176;-115.568;2023-06-22T01:14:43;16.90;39.36
69598;SHT31;70000;51.176;-115.568;2023-06-22T01:17:35;16.74;39.80
69598;SHT31;70000;51.176;-115.568;2023-06-22T01:20:08;16.68;39.58
69598;SHT31;70000;51.176;-115.568;2023-06-22T01:22:51;16.51;39.74
69598;SHT31;70000;51.176;-115.568;2023-06-22T01:29:01;16.21;40.82
69598;SHT31;70000;51.176;-115.568;2023-06-22T01:31:34;16.09;41.58
69598;SHT31;70000;51.176;-115.568;2023-06-22T01:34:03;16.02;41.39
69598;SHT31;70000;51.176;-115.568;2023-06-22T01:36:34;15.96;41.21
69598;SHT31;70000;51.176;-115.568;2023-06-22T01:39:05;15.84;41.67
69598;SHT31;70000;51.176;-115.568;2023-06-22T01:41:35;15.84;41.57
69598;SHT31;70000;51.176;-115.568;2023-06-22T01:44:06;15.77;41.94
69598;SHT31;70000;51.176;-115.568;2023-06-22T01:46:39;15.73;42.11
69598;SHT31;70000;51.176;-115.568;2023-06-22T01:49:08;15.77;41.78
69598;SHT31;70000;51.176;-115.568;2023-06-22T01:51:37;15.78;41.76
69598;SHT31;70000;51.176;-115.568;2023-06-22T01:54:06;15.75;41.42
69598;SHT31;70000;51.176;-115.568;2023-06-22T01:56:36;15.66;40.99
69598;SHT31;70000;51.176;-115.568;2023-06-22T01:59:08;15.52;41.35
69598;SHT31;70000;51.176;-115.568;2023-06-22T02:01:49;15.41;41.94
69598;SHT31;70000;51.176;-115.568;2023-06-22T02:04:40;15.33;42.90
69598;SHT31;70000;51.176;-115.568;2023-06-22T02:07:33;15.27;43.58
69598;SHT31;70000;51.176;-115.568;2023-06-22T02:10:11;15.23;43.40
69598;SHT31;70000;51.176;-115.568;2023-06-22T02:12:43;15.19;42.74
69598;SHT31;70000;51.176;-115.568;2023-06-22T02:15:13;15.11;43.05
69598;SHT31;70000;51.176;-115.568;2023-06-22T02:17:43;15.06;43.20
69598;SHT31;70000;51.176;-115.568;2023-06-22T02:20:15;15.01;43.22
69598;SHT31;70000;51.176;-115.568;2023-06-22T02:22:46;14.95;44.02
69598;SHT31;70000;51.176;-115.568;2023-06-22T02:25:18;14.86;44.11
69598;SHT31;70000;51.176;-115.568;2023-06-22T02:27:47;14.78;44.60
69598;SHT31;70000;51.176;-115.568;2023-06-22T02:30:16;14.74;44.45
69598;SHT31;70000;51.176;-115.568;2023-06-22T02:32:45;14.70;44.93
69598;SHT31;70000;51.176;-115.568;2023-06-22T02:35:13;14.68;44.15
69598;SHT31;70000;51.176;-115.568;2023-06-22T02:37:42;14.63;43.69
69598;SHT31;70000;51.176;-115.568;2023-06-22T02:40:10;14.56;43.77
69598;SHT31;70000;51.176;-115.568;2023-06-22T02:42:39;14.47;43.98
69598;SHT31;70000;51.176;-115.568;2023-06-22T02:45:10;14.41;43.98
69598;SHT31;70000;51.176;-115.568;2023-06-22T02:47:38;14.31;44.44
69598;SHT31;70000;51.176;-115.568;2023-06-22T02:50:07;14.26;45.09
69598;SHT31;70000;51.176;-115.568;2023-06-22T02:52:37;14.20;45.77
69598;SHT31;70000;51.176;-115.568;2023-06-22T02:55:08;14.17;45.74
69598;SHT31;70000;51.176;-115.568;2023-06-22T02:57:37;14.09;45.98
69598;SHT31;70000;51.176;-115.568;2023-06-22T03:00:11;13.96;45.88
69598;SHT31;70000;51.176;-115.568;2023-06-22T03:02:45;13.91;45.88
69598;SHT31;70000;51.176;-115.568;2023-06-22T03:05:15;13.87;46.19
69598;SHT31;70000;51.176;-115.568;2023-06-22T03:07:46;13.77;46.78
69598;SHT31;70000;51.176;-115.568;2023-06-22T03:10:15;13.73;47.63
69598;SHT31;70000;51.176;-115.568;2023-06-22T03:12:44;13.68;47.93
69598;SHT31;70000;51.176;-115.568;2023-06-22T03:15:13;13.63;47.92
69598;SHT31;70000;51.176;-115.568;2023-06-22T03:17:41;13.59;47.99
69598;SHT31;70000;51.176;-115.568;2023-06-22T03:20:10;13.57;48.02
69598;SHT31;70000;51.176;-115.568;2023-06-22T03:22:39;13.52;47.88
69598;SHT31;70000;51.176;-115.568;2023-06-22T03:25:09;13.48;47.98
69598;SHT31;70000;51.176;-115.568;2023-06-22T03:27:40;13.40;48.03
69598;SHT31;70000;51.176;-115.568;2023-06-22T03:30:11;13.36;47.92
69598;SHT31;70000;51.176;-115.568;2023-06-22T03:32:40;13.32;48.12
69598;SHT31;70000;51.176;-115.568;2023-06-22T03:35:10;13.30;48.31
69598;SHT31;70000;51.176;-115.568;2023-06-22T03:37:40;13.21;49.05
69598;SHT31;70000;51.176;-115.568;2023-06-22T03:40:09;13.15;48.71
69598;SHT31;70000;51.176;-115.568;2023-06-22T03:42:41;13.10;48.86
69598;SHT31;70000;51.176;-115.568;2023-06-22T03:45:12;13.06;48.97
69598;SHT31;70000;51.176;-115.568;2023-06-22T03:47:41;13.02;49.26
69598;SHT31;70000;51.176;-115.568;2023-06-22T03:50:09;13.01;49.50
69598;SHT31;70000;51.176;-115.568;2023-06-22T03:52:38;12.99;49.65
69598;SHT31;70000;51.176;-115.568;2023-06-22T03:55:07;12.96;50.03
69598;SHT31;70000;51.176;-115.568;2023-06-22T03:57:37;12.90;50.25
69598;SHT31;70000;51.176;-115.568;2023-06-22T04:00:05;12.84;50.09
69598;SHT31;70000;51.176;-115.568;2023-06-22T04:02:45;12.81;50.17
69598;SHT31;70000;51.176;-115.568;2023-06-22T04:05:50;12.75;49.98
69598;SHT31;70000;51.176;-115.568;2023-06-22T04:09:06;12.66;50.55
69598;SHT31;70000;51.176;-115.568;2023-06-22T04:16:44;12.49;51.02
69598;SHT31;70000;51.176;-115.568;2023-06-22T04:19:58;12.42;51.33
69598;SHT31;70000;51.176;-115.568;2023-06-22T04:22:26;12.33;51.55
69598;SHT31;70000;51.176;-115.568;2023-06-22T04:24:54;12.29;51.43
69598;SHT31;70000;51.176;-115.568;2023-06-22T04:27:26;12.22;51.98
69598;SHT31;70000;51.176;-115.568;2023-06-22T04:29:54;12.17;52.43
69598;SHT31;70000;51.176;-115.568;2023-06-22T04:32:23;12.14;52.62
69598;SHT31;70000;51.176;-115.568;2023-06-22T04:34:51;12.12;52.21
69598;SHT31;70000;51.176;-115.568;2023-06-22T04:37:20;12.07;52.35
69598;SHT31;70000;51.176;-115.568;2023-06-22T04:39:50;12.06;52.05
69598;SHT31;70000;51.176;-115.568;2023-06-22T04:42:19;12.02;52.07
69598;SHT31;70000;51.176;-115.568;2023-06-22T04:44:49;11.95;52.38
69598;SHT31;70000;51.176;-115.568;2023-06-22T04:47:18;11.84;52.93
69598;SHT31;70000;51.176;-115.568;2023-06-22T04:49:47;11.76;53.37
69598;SHT31;70000;51.176;-115.568;2023-06-22T04:52:16;11.68;53.59
69598;SHT31;70000;51.176;-115.568;2023-06-22T04:54:47;11.65;53.71
69598;SHT31;70000;51.176;-115.568;2023-06-22T04:57:18;11.56;53.94
69598;SHT31;70000;51.176;-115.568;2023-06-22T04:59:46;11.49;54.27
69598;SHT31;70000;51.176;-115.568;2023-06-22T05:02:14;11.43;54.24
69598;SHT31;70000;51.176;-115.568;2023-06-22T05:04:43;11.40;54.58
69598;SHT31;70000;51.176;-115.568;2023-06-22T05:07:14;11.41;54.10
69598;SHT31;70000;51.176;-115.568;2023-06-22T05:09:43;11.40;53.96
69598;SHT31;70000;51.176;-115.568;2023-06-22T05:12:11;11.36;54.16
69598;SHT31;70000;51.176;-115.568;2023-06-22T05:14:43;11.28;54.71
69598;SHT31;70000;51.176;-115.568;2023-06-22T05:17:12;11.19;55.08
69598;SHT31;70000;51.176;-115.568;2023-06-22T05:19:41;11.14;55.24
69598;SHT31;70000;51.176;-115.568;2023-06-22T05:22:15;11.03;55.60
69598;SHT31;70000;51.176;-115.568;2023-06-22T05:24:47;10.96;55.90
69598;SHT31;70000;51.176;-115.568;2023-06-22T05:27:15;10.94;56.07
69598;SHT31;70000;51.176;-115.568;2023-06-22T05:29:44;10.90;55.95
69598;SHT31;70000;51.176;-115.568;2023-06-22T05:32:12;10.86;55.97
69598;SHT31;70000;51.176;-115.568;2023-06-22T05:34:40;10.80;56.34
69598;SHT31;70000;51.176;-115.568;2023-06-22T05:37:11;10.75;56.77
69598;SHT31;70000;51.176;-115.568;2023-06-22T05:39:39;10.73;56.87
69598;SHT31;70000;51.176;-115.568;2023-06-22T05:42:21;10.75;56.50
69598;SHT31;70000;51.176;-115.568;2023-06-22T05:44:49;10.74;56.51
69598;SHT31;70000;51.176;-115.568;2023-06-22T05:47:19;10.72;56.64
69598;SHT31;70000;51.176;-115.568;2023-06-22T05:49:48;10.69;57.12
69598;SHT31;70000;51.176;-115.568;2023-06-22T05:52:16;10.64;57.33
69598;SHT31;70000;51.176;-115.568;2023-06-22T05:54:44;10.59;57.42
69598;SHT31;70000;51.176;-115.568;2023-06-22T05:57:15;10.52;57.43
69598;SHT31;70000;51.176;-115.568;2023-06-22T05:59:43;10.40;57.48
69598;SHT31;70000;51.176;-115.568;2023-06-22T06:02:11;10.33;57.94
69598;SHT31;70000;51.176;-115.568;2023-06-22T06:04:40;10.31;58.10
69598;SHT31;70000;51.176;-115.568;2023-06-22T06:07:11;10.27;58.21
69598;SHT31;70000;51.176;-115.568;2023-06-22T06:09:40;10.25;58.26
69598;SHT31;70000;51.176;-115.568;2023-06-22T06:12:08;10.27;58.55
69598;SHT31;70000;51.176;-115.568;2023-06-22T06:14:37;10.26;58.94
69598;SHT31;70000;51.176;-115.568;2023-06-22T06:17:06;10.22;59.29
69598;SHT31;70000;51.176;-115.568;2023-06-22T06:19:35;10.15;59.60
69598;SHT31;70000;51.176;-115.568;2023-06-22T06:22:03;10.11;59.81
69598;SHT31;70000;51.176;-115.568;2023-06-22T06:24:34;10.10;59.55
69598;SHT31;70000;51.176;-115.568;2023-06-22T06:27:03;10.12;59.24
69598;SHT31;70000;51.176;-115.568;2023-06-22T06:29:31;10.14;59.00
69598;SHT31;70000;51.176;-115.568;2023-06-22T06:32:02;10.12;58.93
69598;SHT31;70000;51.176;-115.568;2023-06-22T06:34:30;10.03;59.40
69598;SHT31;70000;51.176;-115.568;2023-06-22T06:36:59;9.97;59.65
69598;SHT31;70000;51.176;-115.568;2023-06-22T06:39:39;9.96;59.67
69598;SHT31;70000;51.176;-115.568;2023-06-22T06:42:10;9.90;59.79
69598;SHT31;70000;51.176;-115.568;2023-06-22T06:44:38;9.89;60.01
69598;SHT31;70000;51.176;-115.568;2023-06-22T06:47:10;9.89;60.23
69598;SHT31;70000;51.176;-115.568;2023-06-22T06:49:38;9.88;60.19
69598;SHT31;70000;51.176;-115.568;2023-06-22T06:52:10;9.87;60.22
69598;SHT31;70000;51.176;-115.568;2023-06-22T06:54:42;9.90;60.19
69598;SHT31;70000;51.176;-115.568;2023-06-22T06:57:10;9.95;59.96
69598;SHT31;70000;51.176;-115.568;2023-06-22T06:59:40;9.98;59.89
69598;SHT31;70000;51.176;-115.568;2023-06-22T07:02:08;9.96;60.08
69598;SHT31;70000;51.176;-115.568;2023-06-22T07:04:37;9.92;60.24
69598;SHT31;70000;51.176;-115.568;2023-06-22T07:07:05;9.86;60.42
69598;SHT31;70000;51.176;-115.568;2023-06-22T07:09:37;9.80;60.70
69598;SHT31;70000;51.176;-115.568;2023-06-22T07:12:05;9.78;60.71
69598;SHT31;70000;51.176;-115.568;2023-06-22T07:14:34;9.75;60.89
69598;SHT31;70000;51.176;-115.568;2023-06-22T07:17:05;9.72;60.91
69598;SHT31;70000;51.176;-115.568;2023-06-22T07:19:34;9.70;60.98
69598;SHT31;70000;51.176;-115.568;2023-06-22T07:22:02;9.62;61.35
69598;SHT31;70000;51.176;-115.568;2023-06-22T07:24:33;9.57;61.61
69598;SHT31;70000;51.176;-115.568;2023-06-22T07:27:01;9.53;61.63
69598;SHT31;70000;51.176;-115.568;2023-06-22T07:29:33;9.54;61.36
69598;SHT31;70000;51.176;-115.568;2023-06-22T07:32:02;9.55;61.34
69598;SHT31;70000;51.176;-115.568;2023-06-22T07:34:31;9.50;61.38
69598;SHT31;70000;51.176;-115.568;2023-06-22T07:37:00;9.54;60.91
69598;SHT31;70000;51.176;-115.568;2023-06-22T07:39:29;9.58;60.70
69598;SHT31;70000;51.176;-115.568;2023-06-22T07:41:58;9.57;60.75
69598;SHT31;70000;51.176;-115.568;2023-06-22T07:44:26;9.52;60.96
69598;SHT31;70000;51.176;-115.568;2023-06-22T07:46:54;9.44;61.36
69598;SHT31;70000;51.176;-115.568;2023-06-22T07:49:22;9.38;61.68
69598;SHT31;70000;51.176;-115.568;2023-06-22T07:51:54;9.34;61.89
69598;SHT31;70000;51.176;-115.568;2023-06-22T07:54:22;9.34;61.97
69598;SHT31;70000;51.176;-115.568;2023-06-22T07:56:50;9.32;62.04
69598;SHT31;70000;51.176;-115.568;2023-06-22T07:59:22;9.30;61.99
69598;SHT31;70000;51.176;-115.568;2023-06-22T08:01:50;9.23;62.10
69598;SHT31;70000;51.176;-115.568;2023-06-22T08:04:19;9.22;61.99
69598;SHT31;70000;51.176;-115.568;2023-06-22T08:06:47;9.21;61.85
69598;SHT31;70000;51.176;-115.568;2023-06-22T08:09:16;9.24;61.70
69598;SHT31;70000;51.176;-115.568;2023-06-22T08:11:44;9.19;61.78
69598;SHT31;70000;51.176;-115.568;2023-06-22T08:14:13;9.15;62.08
69598;SHT31;70000;51.176;-115.568;2023-06-22T08:16:41;9.12;62.12
69598;SHT31;70000;51.176;-115.568;2023-06-22T08:19:09;9.08;62.21
69598;SHT31;70000;51.176;-115.568;2023-06-22T08:21:38;9.02;62.32
69598;SHT31;70000;51.176;-115.568;2023-06-22T08:24:06;9.02;62.33
69598;SHT31;70000;51.176;-115.568;2023-06-22T08:26:35;9.03;62.28
69598;SHT31;70000;51.176;-115.568;2023-06-22T08:29:04;8.95;62.44
69598;SHT31;70000;51.176;-115.568;2023-06-22T08:31:33;8.88;62.09
69598;SHT31;70000;51.176;-115.568;2023-06-22T08:34:04;8.79;62.11
69598;SHT31;70000;51.176;-115.568;2023-06-22T08:36:32;8.76;62.29
69598;SHT31;70000;51.176;-115.568;2023-06-22T08:39:04;8.69;62.31
69598;SHT31;70000;51.176;-115.568;2023-06-22T08:41:32;8.59;62.55
69598;SHT31;70000;51.176;-115.568;2023-06-22T08:44:01;8.51;62.92
69598;SHT31;70000;51.176;-115.568;2023-06-22T08:46:33;8.48;63.23
69598;SHT31;70000;51.176;-115.568;2023-06-22T08:49:02;8.51;63.28
69598;SHT31;70000;51.176;-115.568;2023-06-22T08:51:31;8.54;63.13
69598;SHT31;70000;51.176;-115.568;2023-06-22T08:54:05;8.57;62.98
69598;SHT31;70000;51.176;-115.568;2023-06-22T08:56:34;8.55;62.92
69598;SHT31;70000;51.176;-115.568;2023-06-22T08:59:02;8.46;63.04
69598;SHT31;70000;51.176;-115.568;2023-06-22T09:01:30;8.46;62.97
69598;SHT31;70000;51.176;-115.568;2023-06-22T09:04:27;8.37;63.09
69598;SHT31;70000;51.176;-115.568;2023-06-22T09:06:58;8.32;63.31
69598;SHT31;70000;51.176;-115.568;2023-06-22T09:09:26;8.23;63.86
69598;SHT31;70000;51.176;-115.568;2023-06-22T09:11:54;8.18;64.10
69598;SHT31;70000;51.176;-115.568;2023-06-22T09:14:26;8.18;64.23
69598;SHT31;70000;51.176;-115.568;2023-06-22T09:16:59;8.15;64.28
69598;SHT31;70000;51.176;-115.568;2023-06-22T09:19:27;8.14;64.31
69598;SHT31;70000;51.176;-115.568;2023-06-22T09:21:57;8.13;64.52
69598;SHT31;70000;51.176;-115.568;2023-06-22T09:24:27;8.10;64.71
69598;SHT31;70000;51.176;-115.568;2023-06-22T09:26:56;8.09;64.73
69598;SHT31;70000;51.176;-115.568;2023-06-22T09:29:25;8.07;64.85
69598;SHT31;70000;51.176;-115.568;2023-06-22T09:31:53;8.08;64.88
69598;SHT31;70000;51.176;-115.568;2023-06-22T09:34:22;8.08;64.92
69598;SHT31;70000;51.176;-115.568;2023-06-22T09:36:51;8.07;64.76
69598;SHT31;70000;51.176;-115.568;2023-06-22T09:39:19;8.07;64.86
69598;SHT31;70000;51.176;-115.568;2023-06-22T09:41:48;8.05;64.89
69598;SHT31;70000;51.176;-115.568;2023-06-22T09:44:16;8.04;64.64
69598;SHT31;70000;51.176;-115.568;2023-06-22T09:46:45;8.03;64.81
69598;SHT31;70000;51.176;-115.568;2023-06-22T09:49:17;7.99;64.83
69598;SHT31;70000;51.176;-115.568;2023-06-22T09:52:03;7.97;64.93
69598;SHT31;70000;51.176;-115.568;2023-06-22T09:54:32;7.97;65.02
69598;SHT31;70000;51.176;-115.568;2023-06-22T09:57:01;7.96;65.22
69598;SHT31;70000;51.176;-115.568;2023-06-22T09:59:29;7.95;65.35
69598;SHT31;70000;51.176;-115.568;2023-06-22T10:01:58;7.95;65.41
69598;SHT31;70000;51.176;-115.568;2023-06-22T10:04:28;7.98;65.31
69598;SHT31;70000;51.176;-115.568;2023-06-22T10:06:58;7.99;65.26
69598;SHT31;70000;51.176;-115.568;2023-06-22T10:09:26;8.01;65.27
69598;SHT31;70000;51.176;-115.568;2023-06-22T10:11:56;7.98;65.44
69598;SHT31;70000;51.176;-115.568;2023-06-22T10:14:25;7.98;65.30
69598;SHT31;70000;51.176;-115.568;2023-06-22T10:16:57;8.00;64.73
69598;SHT31;70000;51.176;-115.568;2023-06-22T10:19:26;8.02;64.55
69598;SHT31;70000;51.176;-115.568;2023-06-22T10:21:54;7.99;64.42
69598;SHT31;70000;51.176;-115.568;2023-06-22T10:24:23;7.94;64.54
69598;SHT31;70000;51.176;-115.568;2023-06-22T10:26:51;7.92;64.85
69598;SHT31;70000;51.176;-115.568;2023-06-22T10:29:22;7.91;64.93
69598;SHT31;70000;51.176;-115.568;2023-06-22T10:31:53;7.89;65.07
69598;SHT31;70000;51.176;-115.568;2023-06-22T10:34:21;7.86;65.23
69598;SHT31;70000;51.176;-115.568;2023-06-22T10:36:49;7.87;65.22
69598;SHT31;70000;51.176;-115.568;2023-06-22T10:39:18;7.88;64.92
69598;SHT31;70000;51.176;-115.568;2023-06-22T10:41:46;7.87;65.02
69598;SHT31;70000;51.176;-115.568;2023-06-22T10:44:15;7.85;65.08
69598;SHT31;70000;51.176;-115.568;2023-06-22T10:46:44;7.85;65.29
69598;SHT31;70000;51.176;-115.568;2023-06-22T10:49:12;7.83;65.29
69598;SHT31;70000;51.176;-115.568;2023-06-22T10:51:40;7.84;65.39
69598;SHT31;70000;51.176;-115.568;2023-06-22T10:54:09;7.81;65.35
69598;SHT31;70000;51.176;-115.568;2023-06-22T10:56:45;7.81;65.50
69598;SHT31;70000;51.176;-115.568;2023-06-22T10:59:17;7.82;65.52
69598;SHT31;70000;51.176;-115.568;2023-06-22T11:01:49;7.81;65.64
69598;SHT31;70000;51.176;-115.568;2023-06-22T11:04:17;7.81;65.72
69598;SHT31;70000;51.176;-115.568;2023-06-22T11:06:47;7.80;65.84
69598;SHT31;70000;51.176;-115.568;2023-06-22T11:09:16;7.78;65.68
69598;SHT31;70000;51.176;-115.568;2023-06-22T11:11:53;7.81;65.72
69598;SHT31;70000;51.176;-115.568;2023-06-22T11:14:23;7.82;65.68
69598;SHT31;70000;51.176;-115.568;2023-06-22T11:16:51;7.79;65.76
69598;SHT31;70000;51.176;-115.568;2023-06-22T11:19:19;7.77;65.86
69598;SHT31;70000;51.176;-115.568;2023-06-22T11:21:51;7.78;65.85
69598;SHT31;70000;51.176;-115.568;2023-06-22T11:24:19;7.81;65.75
69598;SHT31;70000;51.176;-115.568;2023-06-22T11:26:47;7.80;65.62
69598;SHT31;70000;51.176;-115.568;2023-06-22T11:29:16;7.78;65.59
69598;SHT31;70000;51.176;-115.568;2023-06-22T11:32:05;7.74;65.46
69598;SHT31;70000;51.176;-115.568;2023-06-22T11:34:40;7.76;65.24
69598;SHT31;70000;51.176;-115.568;2023-06-22T11:37:08;7.80;65.27
69598;SHT31;70000;51.176;-115.568;2023-06-22T11:39:36;7.80;65.37
69598;SHT31;70000;51.176;-115.568;2023-06-22T11:42:18;7.77;65.67
69598;SHT31;70000;51.176;-115.568;2023-06-22T11:44:47;7.82;65.58
69598;SHT31;70000;51.176;-115.568;2023-06-22T11:47:15;7.80;65.62
69598;SHT31;70000;51.176;-115.568;2023-06-22T11:49:43;7.78;65.79
69598;SHT31;70000;51.176;-115.568;2023-06-22T11:52:12;7.81;65.73
69598;SHT31;70000;51.176;-115.568;2023-06-22T11:54:40;7.81;65.66
69598;SHT31;70000;51.176;-115.568;2023-06-22T11:57:08;7.82;65.78
69598;SHT31;70000;51.176;-115.568;2023-06-22T11:59:36;7.84;65.63
69598;SHT31;70000;51.176;-115.568;2023-06-22T12:02:05;7.84;65.87
69598;SHT31;70000;51.176;-115.568;2023-06-22T12:04:36;7.86;66.02
69598;SHT31;70000;51.176;-115.568;2023-06-22T12:07:04;7.86;66.10
69598;SHT31;70000;51.176;-115.568;2023-06-22T12:09:33;7.83;66.09
69598;SHT31;70000;51.176;-115.568;2023-06-22T12:12:01;7.83;66.04
69598;SHT31;70000;51.176;-115.568;2023-06-22T12:14:34;7.84;65.90
69598;SHT31;70000;51.176;-115.568;2023-06-22T12:17:03;7.82;65.80
69598;SHT31;70000;51.176;-115.568;2023-06-22T12:19:31;7.82;65.83
69598;SHT31;70000;51.176;-115.568;2023-06-22T12:21:59;7.81;65.86
69598;SHT31;70000;51.176;-115.568;2023-06-22T12:24:28;7.83;66.09
69598;SHT31;70000;51.176;-115.568;2023-06-22T12:26:58;7.86;65.97
69598;SHT31;70000;51.176;-115.568;2023-06-22T12:29:27;7.90;65.89
69598;SHT31;70000;51.176;-115.568;2023-06-22T12:31:55;7.96;65.80
69598;SHT31;70000;51.176;-115.568;2023-06-22T12:34:23;7.98;65.89
69598;SHT31;70000;51.176;-115.568;2023-06-22T12:36:51;8.01;66.02
69598;SHT31;70000;51.176;-115.568;2023-06-22T12:39:21;8.06;65.99
69598;SHT31;70000;51.176;-115.568;2023-06-22T12:41:49;8.11;65.89
69598;SHT31;70000;51.176;-115.568;2023-06-22T12:44:18;8.12;65.89
69598;SHT31;70000;51.176;-115.568;2023-06-22T12:46:47;8.12;66.00
69598;SHT31;70000;51.176;-115.568;2023-06-22T12:49:15;8.11;66.25
69598;SHT31;70000;51.176;-115.568;2023-06-22T12:51:47;8.12;66.34
69598;SHT31;70000;51.176;-115.568;2023-06-22T12:54:15;8.15;66.50
69598;SHT31;70000;51.176;-115.568;2023-06-22T12:56:45;8.17;66.57
69598;SHT31;70000;51.176;-115.568;2023-06-22T12:59:14;8.21;66.66
69598;SHT31;70000;51.176;-115.568;2023-06-22T13:01:44;8.27;66.52
69598;SHT31;70000;51.176;-115.568;2023-06-22T13:04:13;8.34;66.31
69598;SHT31;70000;51.176;-115.568;2023-06-22T13:06:43;8.38;66.32
69598;SHT31;70000;51.176;-115.568;2023-06-22T13:09:18;8.41;66.40
69598;SHT31;70000;51.176;-115.568;2023-06-22T13:11:47;8.44;66.57
69598;SHT31;70000;51.176;-115.568;2023-06-22T13:14:15;8.48;66.78
69598;SHT31;70000;51.176;-115.568;2023-06-22T13:16:44;8.52;66.72
69598;SHT31;70000;51.176;-115.568;2023-06-22T13:19:15;8.57;66.55
69598;SHT31;70000;51.176;-115.568;2023-06-22T13:21:43;8.62;66.44
69598;SHT31;70000;51.176;-115.568;2023-06-22T13:24:12;8.63;66.28
69598;SHT31;70000;51.176;-115.568;2023-06-22T13:26:40;8.65;66.30
69598;SHT31;70000;51.176;-115.568;2023-06-22T13:29:08;8.63;66.05
69598;SHT31;70000;51.176;-115.568;2023-06-22T13:31:37;8.60;66.04
69598;SHT31;70000;51.176;-115.568;2023-06-22T13:34:05;8.61;66.11
69598;SHT31;70000;51.176;-115.568;2023-06-22T13:36:33;8.63;66.39
69598;SHT31;70000;51.176;-115.568;2023-06-22T13:39:01;8.66;66.45
69598;SHT31;70000;51.176;-115.568;2023-06-22T13:41:30;8.66;66.55
69598;SHT31;70000;51.176;-115.568;2023-06-22T13:43:59;8.68;66.61
69598;SHT31;70000;51.176;-115.568;2023-06-22T13:46:27;8.69;66.84
69598;SHT31;70000;51.176;-115.568;2023-06-22T13:48:56;8.69;66.97
69598;SHT31;70000;51.176;-115.568;2023-06-22T13:51:24;8.72;66.98
69598;SHT31;70000;51.176;-115.568;2023-06-22T13:53:52;8.76;66.77
69598;SHT31;70000;51.176;-115.568;2023-06-22T13:56:21;8.80;66.44
69598;SHT31;70000;51.176;-115.568;2023-06-22T13:58:50;8.84;66.25
69598;SHT31;70000;51.176;-115.568;2023-06-22T14:01:21;8.90;66.13
69598;SHT31;70000;51.176;-115.568;2023-06-22T14:03:50;8.96;66.30
69598;SHT31;70000;51.176;-115.568;2023-06-22T14:06:21;9.01;66.16
69598;SHT31;70000;51.176;-115.568;2023-06-22T14:08:49;9.06;66.14
69598;SHT31;70000;51.176;-115.568;2023-06-22T14:11:17;9.10;65.76
69598;SHT31;70000;51.176;-115.568;2023-06-22T14:13:46;9.12;65.55
69598;SHT31;70000;51.176;-115.568;2023-06-22T14:16:14;9.16;65.51
69598;SHT31;70000;51.176;-115.568;2023-06-22T14:18:42;9.20;65.47
69598;SHT31;70000;51.176;-115.568;2023-06-22T14:21:14;9.25;65.44
69598;SHT31;70000;51.176;-115.568;2023-06-22T14:23:43;9.30;65.30
69598;SHT31;70000;51.176;-115.568;2023-06-22T14:26:16;9.36;65.08
69598;SHT31;70000;51.176;-115.568;2023-06-22T14:28:45;9.40;64.85
69598;SHT31;70000;51.176;-115.568;2023-06-22T14:31:17;9.43;64.80
69598;SHT31;70000;51.176;-115.568;2023-06-22T14:33:47;9.49;64.86
69598;SHT31;70000;51.176;-115.568;2023-06-22T14:36:16;9.55;64.18
69598;SHT31;70000;51.176;-115.568;2023-06-22T14:38:45;9.60;63.79
69598;SHT31;70000;51.176;-115.568;2023-06-22T14:41:16;9.65;63.55
69598;SHT31;70000;51.176;-115.568;2023-06-22T14:43:45;9.69;63.43
69598;SHT31;70000;51.176;-115.568;2023-06-22T14:46:18;9.75;63.38
69598;SHT31;70000;51.176;-115.568;2023-06-22T14:48:47;9.79;63.17
69598;SHT31;70000;51.176;-115.568;2023-06-22T14:51:16;9.85;62.92
69598;SHT31;70000;51.176;-115.568;2023-06-22T14:53:44;9.89;62.74
69598;SHT31;70000;51.176;-115.568;2023-06-22T14:56:23;9.94;62.59
69598;SHT31;70000;51.176;-115.568;2023-06-22T14:58:58;9.98;62.36
69598;SHT31;70000;51.176;-115.568;2023-06-22T15:01:26;10.03;62.18
69598;SHT31;70000;51.176;-115.568;2023-06-22T15:03:55;10.07;62.04
69598;SHT31;70000;51.176;-115.568;2023-06-22T15:06:23;10.14;61.83
69598;SHT31;70000;51.176;-115.568;2023-06-22T15:08:52;10.20;61.71
69598;SHT31;70000;51.176;-115.568;2023-06-22T15:11:20;10.27;61.62
69598;SHT31;70000;51.176;-115.568;2023-06-22T15:13:49;10.34;61.04
69598;SHT31;70000;51.176;-115.568;2023-06-22T15:16:17;10.41;60.64
69598;SHT31;70000;51.176;-115.568;2023-06-22T15:18:45;10.46;60.44
69598;SHT31;70000;51.176;-115.568;2023-06-22T15:21:17;10.51;60.33
69598;SHT31;70000;51.176;-115.568;2023-06-22T15:23:46;10.56;60.14